Time;durP1;ratioP1;P1;durP2;ratioP2;P2;SDS_P1;SDS_P2;PMS_P1;PMS_P2;Temp;Humidity;BMP_temperature;BMP_pressure;BME280_temperature;BME280_humidity;BME280_pressure;Samples;Min_cycle;Max_cycle;Signal;HPM_P1;HPM_P2
2021/07/03 00:02:04;;;;;;;7.20;6.47;;;;;;;;;;5052843;28;20126;-68
2021/07/03 00:04:30;;;;;;;12.45;8.50;;;;;;;;;;5043476;28;20098;-67
2021/07/03 00:06:56;;;;;;;14.75;7.95;;;;;;;;;;5050112;28;20137;-68
2021/07/03 00:09:23;;;;;;;9.82;7.55;;;;;;;;;;5052161;28;20045;-68
2021/07/03 00:11:49;;;;;;;8.90;6.15;;;;;;;;;;5054708;28;20044;-68
2021/07/03 00:14:16;;;;;;;7.85;6.40;;;;;;;;;;5059547;28;20488;-68
2021/07/03 00:16:43;;;;;;;9.48;6.65;;;;;;;;;;5061994;28;20131;-68
2021/07/03 00:19:09;;;;;;;13.73;7.88;;;;;;;;;;5062303;28;20049;-68
2021/07/03 00:21:37;;;;;;;9.95;7.18;;;;;;;;;;5061704;28;20044;-68
2021/07/03 00:24:03;;;;;;;12.38;7.28;;;;;;;;;;5054977;28;20159;-69
2021/07/03 00:26:29;;;;;;;11.25;8.27;;;;;;;;;;5057580;28;20326;-68
2021/07/03 00:28:56;;;;;;;15.50;9.00;;;;;;;;;;5055028;28;20516;-68
2021/07/03 00:31:22;;;;;;;14.93;8.93;;;;;;;;;;5051932;28;20456;-68
2021/07/03 00:33:49;;;;;;;11.93;6.30;;;;;;;;;;5048061;28;20140;-68
2021/07/03 00:36:15;;;;;;;13.65;7.45;;;;;;;;;;5052670;28;20403;-68
2021/07/03 00:38:41;;;;;;;10.10;7.53;;;;;;;;;;5052255;28;20048;-68
2021/07/03 00:41:08;;;;;;;13.70;7.93;;;;;;;;;;5033199;28;20060;-68
2021/07/03 00:43:34;;;;;;;22.65;10.55;;;;;;;;;;5045977;28;20668;-68
2021/07/03 00:46:00;;;;;;;15.02;9.38;;;;;;;;;;5055529;28;20033;-68
2021/07/03 00:48:26;;;;;;;17.10;9.43;;;;;;;;;;5059132;28;20071;-68
2021/07/03 00:50:53;;;;;;;10.48;8.95;;;;;;;;;;5065524;28;20364;-68
2021/07/03 00:53:19;;;;;;;14.82;8.40;;;;;;;;;;5067027;28;20060;-68
2021/07/03 00:55:46;;;;;;;12.82;7.47;;;;;;;;;;5064505;28;20098;-68
2021/07/03 00:58:12;;;;;;;13.93;7.95;;;;;;;;;;5068920;28;20048;-68
2021/07/03 01:00:39;;;;;;;15.48;8.55;;;;;;;;;;5066240;28;20041;-69
2021/07/03 01:03:06;;;;;;;11.57;7.63;;;;;;;;;;5067190;28;20102;-68
2021/07/03 01:05:32;;;;;;;14.63;8.05;;;;;;;;;;5062615;28;20071;-68
2021/07/03 01:07:58;;;;;;;10.73;7.57;;;;;;;;;;5062683;28;20115;-68
2021/07/03 01:10:27;;;;;;;10.45;6.50;;;;;;;;;;5062971;28;20052;-68
2021/07/03 01:12:53;;;;;;;9.50;6.38;;;;;;;;;;5062569;28;20118;-68
2021/07/03 01:15:20;;;;;;;7.82;4.93;;;;;;;;;;5060720;28;20048;-68
2021/07/03 01:17:47;;;;;;;11.55;7.80;;;;;;;;;;5061956;28;20474;-68
2021/07/03 01:20:14;;;;;;;18.00;9.52;;;;;;;;;;5066263;28;20120;-69
2021/07/03 01:22:41;;;;;;;9.55;7.50;;;;;;;;;;5059252;28;20052;-68
2021/07/03 01:25:08;;;;;;;13.15;6.63;;;;;;;;;;5061656;28;20048;-68
2021/07/03 01:27:34;;;;;;;11.50;7.20;;;;;;;;;;5062675;28;20045;-68
2021/07/03 01:30:01;;;;;;;22.20;7.72;;;;;;;;;;5063293;28;20087;-68
2021/07/03 01:32:27;;;;;;;8.43;6.07;;;;;;;;;;5063623;28;20056;-68
2021/07/03 01:34:54;;;;;;;11.15;6.03;;;;;;;;;;5061551;28;20138;-68
2021/07/03 01:37:20;;;;;;;24.00;8.13;;;;;;;;;;5064141;28;20056;-68
2021/07/03 01:39:49;;;;;;;21.05;8.43;;;;;;;;;;5064039;28;20072;-68
2021/07/03 01:42:15;;;;;;;16.05;7.32;;;;;;;;;;5065694;28;20044;-68
2021/07/03 01:44:44;;;;;;;12.10;7.22;;;;;;;;;;5061218;28;20135;-69
2021/07/03 01:47:10;;;;;;;16.95;9.05;;;;;;;;;;5062144;28;20036;-68
2021/07/03 01:49:39;;;;;;;16.30;9.73;;;;;;;;;;5063021;28;20052;-69
2021/07/03 01:52:05;;;;;;;15.82;9.60;;;;;;;;;;5066589;28;20161;-68
2021/07/03 01:54:32;;;;;;;11.55;8.30;;;;;;;;;;5064952;28;20069;-68
2021/07/03 01:56:59;;;;;;;10.90;7.22;;;;;;;;;;5065566;28;20033;-68
2021/07/03 01:59:26;;;;;;;13.77;8.45;;;;;;;;;;5066262;28;20127;-68
2021/07/03 02:01:53;;;;;;;17.92;9.45;;;;;;;;;;5061629;28;20041;-68
2021/07/03 02:04:19;;;;;;;23.40;9.57;;;;;;;;;;5061354;28;20504;-68
2021/07/03 02:06:46;;;;;;;38.40;9.40;;;;;;;;;;5060916;28;20047;-68
2021/07/03 02:09:12;;;;;;;40.55;7.63;;;;;;;;;;5061296;28;20052;-68
2021/07/03 02:11:38;;;;;;;49.38;8.40;;;;;;;;;;5062650;28;20082;-68
2021/07/03 02:14:05;;;;;;;68.03;7.95;;;;;;;;;;5065700;28;20446;-68
2021/07/03 02:16:32;;;;;;;36.53;7.20;;;;;;;;;;5065766;28;20048;-68
2021/07/03 02:18:59;;;;;;;20.25;6.35;;;;;;;;;;5062797;28;20036;-68
2021/07/03 02:21:25;;;;;;;14.60;6.03;;;;;;;;;;5063800;28;20040;-68
2021/07/03 02:23:52;;;;;;;10.13;6.30;;;;;;;;;;5064130;28;20151;-68
2021/07/03 02:26:18;;;;;;;9.18;5.40;;;;;;;;;;5062145;28;20044;-68
2021/07/03 02:28:44;;;;;;;9.82;6.30;;;;;;;;;;5066258;28;20076;-68
2021/07/03 02:31:11;;;;;;;9.88;6.25;;;;;;;;;;5064869;28;20094;-69
2021/07/03 02:33:37;;;;;;;11.35;7.35;;;;;;;;;;5058050;28;20108;-68
2021/07/03 02:36:04;;;;;;;10.88;8.35;;;;;;;;;;5061420;28;20037;-68
2021/07/03 02:38:30;;;;;;;10.18;8.25;;;;;;;;;;5064113;28;20075;-68
2021/07/03 02:40:57;;;;;;;10.70;8.10;;;;;;;;;;5064692;28;20049;-68
2021/07/03 02:43:23;;;;;;;9.57;7.18;;;;;;;;;;5065168;28;20120;-69
2021/07/03 02:45:49;;;;;;;8.00;5.82;;;;;;;;;;5060837;28;20071;-68
2021/07/03 02:48:16;;;;;;;28.73;6.80;;;;;;;;;;5059683;28;20800;-69
2021/07/03 02:50:42;;;;;;;9.75;5.57;;;;;;;;;;5061296;28;20083;-69
2021/07/03 02:53:09;;;;;;;10.27;5.70;;;;;;;;;;5060943;28;20155;-68
2021/07/03 02:55:35;;;;;;;11.45;6.57;;;;;;;;;;5058302;28;20505;-68
2021/07/03 02:58:04;;;;;;;21.23;10.18;;;;;;;;;;5060087;28;20041;-68
2021/07/03 03:00:31;;;;;;;15.88;9.38;;;;;;;;;;5058825;28;20052;-68
2021/07/03 03:02:57;;;;;;;13.48;8.63;;;;;;;;;;5059331;28;20427;-68
2021/07/03 03:05:23;;;;;;;11.82;8.73;;;;;;;;;;5046699;28;20125;-68
2021/07/03 03:07:50;;;;;;;14.75;8.63;;;;;;;;;;5068509;28;20041;-68
2021/07/03 03:10:17;;;;;;;15.50;8.93;;;;;;;;;;5069481;28;20075;-68
2021/07/03 03:12:44;;;;;;;15.30;9.82;;;;;;;;;;5066591;28;20048;-68
2021/07/03 03:15:11;;;;;;;11.30;8.57;;;;;;;;;;5066433;28;20041;-68
2021/07/03 03:17:37;;;;;;;13.30;9.40;;;;;;;;;;5065588;28;20426;-68
2021/07/03 03:20:05;;;;;;;12.45;8.27;;;;;;;;;;5066134;28;20111;-68
2021/07/03 03:22:32;;;;;;;15.52;7.60;;;;;;;;;;5049601;28;20825;-68
2021/07/03 03:24:58;;;;;;;22.98;7.68;;;;;;;;;;5067759;28;20040;-68
2021/07/03 03:27:24;;;;;;;35.25;8.35;;;;;;;;;;5061768;28;20263;-68
2021/07/03 03:29:51;;;;;;;21.98;9.25;;;;;;;;;;5061302;28;20115;-68
2021/07/03 03:32:18;;;;;;;68.65;10.82;;;;;;;;;;5061515;28;20048;-68
2021/07/03 03:34:44;;;;;;;36.28;9.85;;;;;;;;;;5062808;28;20052;-68
2021/07/03 03:37:11;;;;;;;19.95;10.05;;;;;;;;;;5068250;28;20043;-68
2021/07/03 03:39:37;;;;;;;27.80;10.60;;;;;;;;;;5066062;28;20066;-68
2021/07/03 03:42:04;;;;;;;28.33;11.30;;;;;;;;;;5061654;28;20064;-68
2021/07/03 03:44:30;;;;;;;78.47;13.65;;;;;;;;;;5059739;28;20068;-68
2021/07/03 03:46:57;;;;;;;23.55;13.27;;;;;;;;;;5059769;28;20044;-69
2021/07/03 03:49:23;;;;;;;19.98;13.32;;;;;;;;;;5064601;28;20483;-68
2021/07/03 03:51:50;;;;;;;20.42;11.50;;;;;;;;;;5068033;28;20032;-68
2021/07/03 03:54:17;;;;;;;11.52;8.52;;;;;;;;;;5069061;28;20111;-68
2021/07/03 03:56:43;;;;;;;11.10;8.10;;;;;;;;;;5050701;28;20094;-68
2021/07/03 03:59:11;;;;;;;10.27;7.93;;;;;;;;;;5062205;28;20061;-68
2021/07/03 04:01:37;;;;;;;26.13;9.52;;;;;;;;;;5065230;28;20043;-68
2021/07/03 04:04:03;;;;;;;72.75;10.77;;;;;;;;;;5060574;28;20040;-68
2021/07/03 04:06:30;;;;;;;88.13;12.45;;;;;;;;;;5062118;28;20600;-68
2021/07/03 04:08:56;;;;;;;62.90;10.35;;;;;;;;;;5064154;28;20400;-68
2021/07/03 04:11:23;;;;;;;56.83;11.25;;;;;;;;;;5065371;28;20082;-68
2021/07/03 04:13:49;;;;;;;71.88;9.20;;;;;;;;;;5068512;28;20059;-68
2021/07/03 04:16:15;;;;;;;61.00;10.68;;;;;;;;;;5069449;28;20100;-68
2021/07/03 04:18:42;;;;;;;18.67;9.40;;;;;;;;;;5064350;28;20064;-69
2021/07/03 04:21:08;;;;;;;10.10;8.30;;;;;;;;;;5062072;28;20051;-68
2021/07/03 04:23:34;;;;;;;10.25;8.10;;;;;;;;;;5066901;28;20226;-69
2021/07/03 04:26:01;;;;;;;33.13;10.70;;;;;;;;;;5066082;28;20036;-68
2021/07/03 04:28:27;;;;;;;19.70;10.90;;;;;;;;;;5069067;28;20053;-68
2021/07/03 04:30:54;;;;;;;11.63;9.77;;;;;;;;;;5066625;28;21751;-69
2021/07/03 04:33:20;;;;;;;12.32;9.48;;;;;;;;;;5063817;28;20052;-68
2021/07/03 04:35:46;;;;;;;12.75;8.15;;;;;;;;;;5061512;28;20135;-68
2021/07/03 04:38:13;;;;;;;10.57;8.82;;;;;;;;;;5060729;28;20061;-68
2021/07/03 04:40:39;;;;;;;10.85;8.73;;;;;;;;;;5061852;28;20150;-68
2021/07/03 04:43:05;;;;;;;12.07;9.35;;;;;;;;;;5062885;28;20484;-68
2021/07/03 04:45:32;;;;;;;11.30;8.98;;;;;;;;;;5067837;28;20161;-68
2021/07/03 04:47:58;;;;;;;11.00;8.90;;;;;;;;;;5069273;28;20049;-68
2021/07/03 04:50:25;;;;;;;9.80;8.40;;;;;;;;;;5064278;28;20229;-68
2021/07/03 04:52:51;;;;;;;12.02;9.10;;;;;;;;;;5062506;28;20040;-68
2021/07/03 04:55:17;;;;;;;16.23;11.88;;;;;;;;;;5057720;28;20049;-68
2021/07/03 04:57:44;;;;;;;10.95;9.10;;;;;;;;;;5061078;28;20093;-68
2021/07/03 05:00:10;;;;;;;10.75;9.25;;;;;;;;;;5062706;28;20033;-70
2021/07/03 05:02:37;;;;;;;10.38;9.27;;;;;;;;;;5064151;28;21409;-69
2021/07/03 05:05:03;;;;;;;16.13;12.13;;;;;;;;;;5061929;28;20037;-69
2021/07/03 05:07:30;;;;;;;20.38;14.60;;;;;;;;;;5061687;28;20511;-69
2021/07/03 05:09:56;;;;;;;20.08;15.40;;;;;;;;;;5062366;28;20041;-69
2021/07/03 05:12:22;;;;;;;18.42;15.48;;;;;;;;;;5066472;28;20044;-69
2021/07/03 05:14:48;;;;;;;20.83;16.38;;;;;;;;;;5062444;28;20064;-69
2021/07/03 05:17:15;;;;;;;22.88;17.77;;;;;;;;;;5052083;28;20044;-69
2021/07/03 05:19:41;;;;;;;21.17;17.13;;;;;;;;;;5062070;28;20089;-70
2021/07/03 05:22:07;;;;;;;22.02;17.27;;;;;;;;;;5055580;28;20480;-69
2021/07/03 05:24:34;;;;;;;18.10;15.48;;;;;;;;;;5046168;28;20048;-69
2021/07/03 05:27:00;;;;;;;20.13;15.25;;;;;;;;;;5056741;28;20048;-69
2021/07/03 05:29:26;;;;;;;19.45;14.38;;;;;;;;;;5062217;28;20044;-69
2021/07/03 05:31:53;;;;;;;21.67;14.65;;;;;;;;;;5059491;28;20919;-69
2021/07/03 05:34:19;;;;;;;24.48;15.20;;;;;;;;;;5064269;28;20052;-69
2021/07/03 05:36:48;;;;;;;17.90;15.75;;;;;;;;;;5066397;28;20487;-69
2021/07/03 05:39:15;;;;;;;19.88;14.45;;;;;;;;;;5066588;28;20090;-69
2021/07/03 05:41:42;;;;;;;15.82;12.00;;;;;;;;;;5065513;28;20617;-69
2021/07/03 05:44:08;;;;;;;17.10;13.07;;;;;;;;;;5041892;28;20048;-69
2021/07/03 05:46:35;;;;;;;18.50;12.30;;;;;;;;;;5060857;28;20123;-69
2021/07/03 05:49:01;;;;;;;19.27;12.77;;;;;;;;;;5059713;28;20102;-70
2021/07/03 05:51:27;;;;;;;16.92;11.95;;;;;;;;;;5063323;28;20060;-69
2021/07/03 05:53:55;;;;;;;17.08;11.57;;;;;;;;;;5068213;28;20044;-70
2021/07/03 05:56:21;;;;;;;23.40;12.50;;;;;;;;;;5061662;28;20152;-70
2021/07/03 05:58:48;;;;;;;17.15;11.85;;;;;;;;;;5063722;28;20048;-70
2021/07/03 06:01:14;;;;;;;14.63;9.48;;;;;;;;;;5065588;28;20052;-70
2021/07/03 06:03:41;;;;;;;22.63;11.10;;;;;;;;;;5052857;28;20120;-70
2021/07/03 06:06:07;;;;;;;16.40;10.82;;;;;;;;;;5065751;28;20171;-70
2021/07/03 06:08:33;;;;;;;16.17;10.38;;;;;;;;;;5067053;28;20079;-70
2021/07/03 06:11:00;;;;;;;16.33;10.52;;;;;;;;;;5053107;28;20507;-69
2021/07/03 06:13:27;;;;;;;16.88;11.27;;;;;;;;;;5055123;28;20037;-70
2021/07/03 06:15:54;;;;;;;16.23;9.45;;;;;;;;;;5061058;28;20050;-69
2021/07/03 06:18:20;;;;;;;15.60;9.27;;;;;;;;;;5060020;28;20041;-70
2021/07/03 06:20:46;;;;;;;16.00;9.38;;;;;;;;;;5070089;28;20052;-70
2021/07/03 06:23:13;;;;;;;12.70;8.93;;;;;;;;;;5065006;28;20048;-70
2021/07/03 06:25:39;;;;;;;17.23;9.88;;;;;;;;;;5067440;28;20044;-70
2021/07/03 06:28:05;;;;;;;15.85;9.40;;;;;;;;;;5068166;28;20036;-70
2021/07/03 06:30:31;;;;;;;15.00;9.07;;;;;;;;;;5066434;28;20074;-71
2021/07/03 06:32:59;;;;;;;17.65;9.82;;;;;;;;;;5066778;28;20482;-70
2021/07/03 06:35:25;;;;;;;14.77;9.07;;;;;;;;;;5066510;28;20140;-70
2021/07/03 06:37:51;;;;;;;11.55;7.95;;;;;;;;;;5064827;28;20044;-71
2021/07/03 06:40:18;;;;;;;11.98;7.60;;;;;;;;;;5066230;28;20040;-70
2021/07/03 06:42:45;;;;;;;11.90;8.35;;;;;;;;;;5064378;28;20078;-69
2021/07/03 06:45:11;;;;;;;16.08;9.82;;;;;;;;;;5065498;28;20043;-70
2021/07/03 06:47:37;;;;;;;17.35;9.18;;;;;;;;;;5062964;28;20118;-70
2021/07/03 06:50:05;;;;;;;14.27;8.10;;;;;;;;;;5065888;28;20051;-69
2021/07/03 06:52:31;;;;;;;16.83;9.60;;;;;;;;;;5063850;28;20429;-69
2021/07/03 06:54:57;;;;;;;13.00;8.50;;;;;;;;;;5067034;28;20403;-69
2021/07/03 06:57:25;;;;;;;12.55;8.88;;;;;;;;;;5066712;28;20471;-69
2021/07/03 06:59:51;;;;;;;13.55;8.93;;;;;;;;;;5066743;28;20048;-69
2021/07/03 07:02:19;;;;;;;17.75;9.02;;;;;;;;;;5066265;28;20047;-69
2021/07/03 07:04:45;;;;;;;12.98;10.13;;;;;;;;;;5066035;28;20036;-70
2021/07/03 07:07:12;;;;;;;14.30;8.82;;;;;;;;;;5065609;28;20528;-69
2021/07/03 07:09:38;;;;;;;13.95;9.20;;;;;;;;;;5065297;28;20041;-69
2021/07/03 07:12:04;;;;;;;14.45;9.75;;;;;;;;;;5066697;28;20071;-69
2021/07/03 07:14:31;;;;;;;16.38;9.10;;;;;;;;;;5063768;28;20076;-70
2021/07/03 07:16:57;;;;;;;13.30;7.25;;;;;;;;;;5049196;28;20135;-70
2021/07/03 07:19:24;;;;;;;15.48;7.95;;;;;;;;;;5064336;28;20052;-69
2021/07/03 07:21:50;;;;;;;29.50;12.48;;;;;;;;;;5065182;28;20040;-70
2021/07/03 07:24:16;;;;;;;18.30;8.05;;;;;;;;;;5066035;28;20044;-69
2021/07/03 07:26:43;;;;;;;13.82;6.72;;;;;;;;;;5065953;28;20049;-70
2021/07/03 07:29:09;;;;;;;16.35;6.85;;;;;;;;;;5064755;28;20045;-70
2021/07/03 07:31:35;;;;;;;12.95;6.25;;;;;;;;;;5048349;28;20546;-69
2021/07/03 07:34:01;;;;;;;10.77;5.45;;;;;;;;;;5065791;28;20045;-70
2021/07/03 07:36:29;;;;;;;17.08;7.00;;;;;;;;;;5066106;28;20093;-69
2021/07/03 07:38:56;;;;;;;12.70;7.60;;;;;;;;;;5065945;28;20061;-69
2021/07/03 07:41:23;;;;;;;12.27;7.25;;;;;;;;;;5066815;28;20043;-69
2021/07/03 07:43:49;;;;;;;15.77;7.30;;;;;;;;;;5061722;28;20175;-69
2021/07/03 07:46:15;;;;;;;13.35;7.32;;;;;;;;;;5063888;28;20048;-69
2021/07/03 07:48:41;;;;;;;12.25;7.40;;;;;;;;;;5058387;28;20048;-69
2021/07/03 07:51:08;;;;;;;14.35;7.30;;;;;;;;;;5029330;28;20088;-69
2021/07/03 07:53:35;;;;;;;16.42;8.32;;;;;;;;;;5046707;28;20041;-69
2021/07/03 07:56:01;;;;;;;13.15;8.18;;;;;;;;;;5047293;28;20053;-69
2021/07/03 07:58:27;;;;;;;15.75;8.35;;;;;;;;;;5045469;28;20099;-71
2021/07/03 08:00:54;;;;;;;12.40;7.28;;;;;;;;;;5045055;28;20048;-69
2021/07/03 08:03:20;;;;;;;11.82;6.93;;;;;;;;;;5046271;28;20052;-69
2021/07/03 08:05:47;;;;;;;13.68;7.25;;;;;;;;;;5049108;28;20115;-69
2021/07/03 08:08:13;;;;;;;12.75;8.27;;;;;;;;;;5047231;28;20045;-69
2021/07/03 08:10:40;;;;;;;17.13;9.10;;;;;;;;;;5047730;28;20125;-69
2021/07/03 08:13:07;;;;;;;14.07;8.80;;;;;;;;;;5047833;28;20194;-69
2021/07/03 08:15:33;;;;;;;10.75;8.07;;;;;;;;;;5046776;28;20045;-69
2021/07/03 08:18:00;;;;;;;18.02;9.05;;;;;;;;;;5045350;28;20041;-69
2021/07/03 08:20:27;;;;;;;17.38;9.20;;;;;;;;;;5042053;28;20516;-69
2021/07/03 08:22:53;;;;;;;17.13;9.20;;;;;;;;;;5044450;28;20064;-69
2021/07/03 08:25:21;;;;;;;14.02;8.95;;;;;;;;;;5047272;28;20053;-69
2021/07/03 08:27:48;;;;;;;15.55;9.13;;;;;;;;;;5050250;28;20053;-69
2021/07/03 08:30:15;;;;;;;12.27;8.07;;;;;;;;;;5048486;28;20102;-69
2021/07/03 08:32:42;;;;;;;18.88;8.98;;;;;;;;;;5047953;28;20052;-69
2021/07/03 08:35:09;;;;;;;16.52;8.52;;;;;;;;;;5048279;28;21014;-69
2021/07/03 08:37:35;;;;;;;16.88;9.60;;;;;;;;;;5047897;28;20150;-71
2021/07/03 08:40:03;;;;;;;25.55;10.32;;;;;;;;;;5046668;28;20583;-70
2021/07/03 08:42:30;;;;;;;17.25;9.45;;;;;;;;;;5046669;28;20084;-69
2021/07/03 08:44:56;;;;;;;16.02;10.30;;;;;;;;;;5042569;28;20434;-70
2021/07/03 08:47:23;;;;;;;17.52;9.73;;;;;;;;;;5046489;28;20043;-69
2021/07/03 08:49:56;;;;;;;16.30;11.15;;;;;;;;;;5051755;28;20140;-69
2021/07/03 08:52:24;;;;;;;15.95;10.45;;;;;;;;;;5062368;28;20456;-70
2021/07/03 08:55:06;;;;;;;19.67;11.20;;;;;;;;;;5061940;28;20547;-70
2021/07/03 08:57:41;;;;;;;17.25;12.13;;;;;;;;;;5066360;28;20601;-69
2021/07/03 09:00:07;;;;;;;19.83;13.25;;;;;;;;;;5065096;28;20408;-69
2021/07/03 09:02:35;;;;;;;17.13;12.07;;;;;;;;;;5064784;28;20182;-70
2021/07/03 09:05:01;;;;;;;21.08;13.10;;;;;;;;;;5062465;28;20545;-70
2021/07/03 09:07:33;;;;;;;23.83;13.52;;;;;;;;;;5066529;28;20040;-70
2021/07/03 09:10:00;;;;;;;23.50;14.90;;;;;;;;;;5066426;28;20141;-70
2021/07/03 09:12:30;;;;;;;20.90;13.50;;;;;;;;;;5060348;28;20048;-69
2021/07/03 09:14:56;;;;;;;21.73;14.32;;;;;;;;;;5063126;28;20091;-69
2021/07/03 09:17:24;;;;;;;25.13;14.55;;;;;;;;;;5065735;28;20048;-69
2021/07/03 09:19:52;;;;;;;22.77;15.88;;;;;;;;;;5064530;28;20277;-70
2021/07/03 09:22:18;;;;;;;20.27;14.43;;;;;;;;;;5067308;28;20049;-69
2021/07/03 09:24:45;;;;;;;23.05;14.70;;;;;;;;;;5062193;28;20033;-69
2021/07/03 09:27:12;;;;;;;21.88;15.05;;;;;;;;;;5060395;28;20052;-69
2021/07/03 09:29:49;;;;;;;21.48;14.88;;;;;;;;;;5060445;28;20068;-70
2021/07/03 09:32:15;;;;;;;21.30;14.68;;;;;;;;;;5057196;28;20111;-70
2021/07/03 09:34:42;;;;;;;21.17;14.90;;;;;;;;;;5062178;28;20045;-69
2021/07/03 09:37:12;;;;;;;22.65;14.95;;;;;;;;;;5063753;28;20036;-69
2021/07/03 09:39:38;;;;;;;21.58;16.30;;;;;;;;;;5066369;28;20875;-70
2021/07/03 09:42:13;;;;;;;23.30;16.13;;;;;;;;;;5063712;28;20064;-69
2021/07/03 09:44:40;;;;;;;23.73;16.48;;;;;;;;;;5061897;28;20044;-70
2021/07/03 09:47:06;;;;;;;22.23;16.23;;;;;;;;;;5063484;28;20138;-70
2021/07/03 09:49:32;;;;;;;23.55;15.80;;;;;;;;;;5063872;28;20115;-70
2021/07/03 09:52:00;;;;;;;28.58;14.98;;;;;;;;;;5045714;28;20485;-70
2021/07/03 09:54:29;;;;;;;26.98;15.23;;;;;;;;;;5062046;28;20134;-70
2021/07/03 09:56:58;;;;;;;22.83;14.45;;;;;;;;;;5062663;28;20037;-70
2021/07/03 09:59:27;;;;;;;19.25;12.80;;;;;;;;;;5061400;28;20079;-70
2021/07/03 10:01:54;;;;;;;22.70;14.48;;;;;;;;;;5059266;28;20078;-70
2021/07/03 10:04:20;;;;;;;20.08;11.45;;;;;;;;;;5060291;28;20068;-70
2021/07/03 10:06:48;;;;;;;15.88;10.40;;;;;;;;;;5060534;28;20059;-70
2021/07/03 10:09:20;;;;;;;15.55;11.80;;;;;;;;;;5063112;28;20158;-70
2021/07/03 10:11:49;;;;;;;15.75;10.40;;;;;;;;;;5064330;28;20064;-70
2021/07/03 10:14:16;;;;;;;14.07;9.75;;;;;;;;;;5064115;28;20431;-70
2021/07/03 10:16:42;;;;;;;16.02;11.07;;;;;;;;;;5064720;28;20048;-70
2021/07/03 10:19:10;;;;;;;12.98;9.40;;;;;;;;;;5061744;28;20397;-70
2021/07/03 10:21:37;;;;;;;16.33;10.05;;;;;;;;;;5062456;28;20106;-70
2021/07/03 10:24:03;;;;;;;14.65;9.10;;;;;;;;;;5059537;28;20063;-70
2021/07/03 10:26:37;;;;;;;17.52;10.85;;;;;;;;;;5063227;28;20134;-70
2021/07/03 10:29:14;;;;;;;16.08;10.98;;;;;;;;;;5065690;28;20471;-70
2021/07/03 10:31:40;;;;;;;14.52;9.68;;;;;;;;;;5061963;28;20064;-70
2021/07/03 10:34:06;;;;;;;13.63;8.73;;;;;;;;;;5046264;28;20051;-70
2021/07/03 10:36:33;;;;;;;11.63;7.80;;;;;;;;;;5065312;28;20063;-70
2021/07/03 10:39:01;;;;;;;14.02;8.45;;;;;;;;;;5064089;28;20044;-70
2021/07/03 10:41:29;;;;;;;12.35;8.63;;;;;;;;;;5065658;28;20467;-70
2021/07/03 10:44:07;;;;;;;13.20;9.45;;;;;;;;;;5065126;28;20052;-70
2021/07/03 10:46:36;;;;;;;14.07;9.35;;;;;;;;;;5062561;28;20132;-70
2021/07/03 10:49:04;;;;;;;12.95;9.23;;;;;;;;;;5055885;28;20426;-70
2021/07/03 10:51:31;;;;;;;12.70;7.78;;;;;;;;;;5059328;28;20117;-70
2021/07/03 10:54:08;;;;;;;13.93;8.93;;;;;;;;;;5060627;28;20097;-70
2021/07/03 10:56:41;;;;;;;13.15;8.95;;;;;;;;;;5065768;28;20040;-70
2021/07/03 10:59:09;;;;;;;12.73;7.93;;;;;;;;;;5064564;28;20117;-70
2021/07/03 11:01:36;;;;;;;11.85;8.65;;;;;;;;;;5056132;28;20055;-70
2021/07/03 11:04:12;;;;;;;11.18;7.32;;;;;;;;;;5060756;28;20102;-70
2021/07/03 11:06:42;;;;;;;12.15;8.77;;;;;;;;;;5062556;28;20428;-70
2021/07/03 11:09:28;;;;;;;12.05;8.88;;;;;;;;;;5062104;28;20147;-70
2021/07/03 11:11:56;;;;;;;12.30;8.20;;;;;;;;;;5057790;28;20041;-70
2021/07/03 11:14:23;;;;;;;16.83;11.10;;;;;;;;;;5042499;28;20048;-70
2021/07/03 11:16:50;;;;;;;15.18;9.27;;;;;;;;;;5062380;28;20052;-70
2021/07/03 11:19:21;;;;;;;14.18;8.65;;;;;;;;;;5059405;28;20056;-71
2021/07/03 11:21:47;;;;;;;11.57;7.93;;;;;;;;;;5062972;28;20056;-74
2021/07/03 11:24:13;;;;;;;15.13;8.60;;;;;;;;;;5059538;28;20059;-71
2021/07/03 11:26:39;;;;;;;10.25;8.18;;;;;;;;;;5058137;28;20491;-71
2021/07/03 11:29:06;;;;;;;11.07;7.35;;;;;;;;;;5070581;28;20055;-70
2021/07/03 11:31:32;;;;;;;9.70;7.03;;;;;;;;;;5069744;28;20166;-70
2021/07/03 11:33:59;;;;;;;9.52;7.25;;;;;;;;;;5067525;28;20127;-71
2021/07/03 11:36:25;;;;;;;12.65;7.13;;;;;;;;;;5069089;28;20139;-71
2021/07/03 11:38:56;;;;;;;11.23;7.35;;;;;;;;;;5064013;28;20041;-71
2021/07/03 11:41:23;;;;;;;10.07;7.20;;;;;;;;;;5063153;28;20131;-71
2021/07/03 11:43:57;;;;;;;11.75;6.57;;;;;;;;;;5058880;28;20103;-71
2021/07/03 11:46:23;;;;;;;10.45;6.85;;;;;;;;;;5060834;28;20049;-70
2021/07/03 11:48:50;;;;;;;11.35;7.45;;;;;;;;;;5060619;28;20041;-71
2021/07/03 11:51:17;;;;;;;13.55;7.05;;;;;;;;;;5063378;28;20059;-69
2021/07/03 11:53:47;;;;;;;10.23;6.70;;;;;;;;;;5060675;28;20069;-70
2021/07/03 11:56:13;;;;;;;7.85;5.57;;;;;;;;;;5063086;28;20044;-69
2021/07/03 11:58:39;;;;;;;10.65;6.45;;;;;;;;;;5060812;28;20106;-69
2021/07/03 12:01:07;;;;;;;8.35;5.40;;;;;;;;;;5061959;28;20211;-69
2021/07/03 12:03:34;;;;;;;7.97;6.15;;;;;;;;;;5060694;28;20453;-69
2021/07/03 12:06:03;;;;;;;9.85;6.43;;;;;;;;;;5061873;28;20055;-70
2021/07/03 12:08:31;;;;;;;13.13;7.38;;;;;;;;;;5063410;28;20131;-69
2021/07/03 12:10:59;;;;;;;8.77;6.13;;;;;;;;;;5062832;28;20123;-69
2021/07/03 12:13:26;;;;;;;8.80;5.90;;;;;;;;;;5064450;28;20072;-69
2021/07/03 12:16:04;;;;;;;8.75;5.88;;;;;;;;;;5060509;28;20048;-69
2021/07/03 12:18:35;;;;;;;7.60;4.65;;;;;;;;;;5042094;28;20145;-70
2021/07/03 12:21:03;;;;;;;10.93;5.18;;;;;;;;;;5060640;28;20461;-70
2021/07/03 12:23:29;;;;;;;10.15;5.47;;;;;;;;;;5067905;28;20045;-70
2021/07/03 12:25:55;;;;;;;8.32;5.70;;;;;;;;;;5065890;28;20140;-70
2021/07/03 12:28:21;;;;;;;7.95;5.65;;;;;;;;;;5068811;28;20518;-70
2021/07/03 12:30:48;;;;;;;6.68;4.95;;;;;;;;;;5055966;28;20120;-69
2021/07/03 12:33:14;;;;;;;7.88;5.22;;;;;;;;;;5064010;28;20068;-71
2021/07/03 12:35:42;;;;;;;6.70;4.65;;;;;;;;;;5059952;28;20040;-68
2021/07/03 12:38:09;;;;;;;10.35;4.82;;;;;;;;;;5061213;28;20041;-82
2021/07/03 12:40:37;;;;;;;6.88;4.85;;;;;;;;;;5066686;28;20044;-72
2021/07/03 12:43:04;;;;;;;8.02;5.47;;;;;;;;;;5062330;28;20131;-72
2021/07/03 12:45:30;;;;;;;8.88;5.60;;;;;;;;;;5061507;28;20480;-72
2021/07/03 12:48:07;;;;;;;11.15;5.50;;;;;;;;;;5068227;28;20071;-72
2021/07/03 12:50:34;;;;;;;7.82;5.18;;;;;;;;;;5066738;28;20056;-71
2021/07/03 12:53:16;;;;;;;8.00;5.25;;;;;;;;;;5044067;28;20120;-71
2021/07/03 12:55:44;;;;;;;6.90;5.30;;;;;;;;;;5064063;28;20036;-72
2021/07/03 12:58:25;;;;;;;6.80;4.97;;;;;;;;;;5067650;28;20090;-71
2021/07/03 13:00:52;;;;;;;6.82;4.72;;;;;;;;;;5065519;28;20086;-72
2021/07/03 13:03:19;;;;;;;7.32;4.38;;;;;;;;;;5064502;28;20441;-72
2021/07/03 13:05:48;;;;;;;6.25;4.30;;;;;;;;;;5050259;28;20400;-71
2021/07/03 13:08:14;;;;;;;7.07;4.85;;;;;;;;;;5062012;28;20763;-71
2021/07/03 13:10:41;;;;;;;8.35;4.65;;;;;;;;;;5067775;28;20043;-70
2021/07/03 13:13:07;;;;;;;6.90;4.53;;;;;;;;;;5063568;28;20063;-70
2021/07/03 13:15:34;;;;;;;8.32;4.75;;;;;;;;;;5057304;28;20057;-70
2021/07/03 13:18:01;;;;;;;6.85;4.57;;;;;;;;;;5061740;28;20043;-70
2021/07/03 13:20:27;;;;;;;8.73;4.50;;;;;;;;;;5057520;28;20049;-71
2021/07/03 13:22:53;;;;;;;7.53;4.68;;;;;;;;;;5026247;28;20048;-71
2021/07/03 13:25:20;;;;;;;5.72;4.28;;;;;;;;;;5056059;28;20052;-71
2021/07/03 13:27:46;;;;;;;9.07;4.18;;;;;;;;;;5056670;28;20081;-71
2021/07/03 13:30:13;;;;;;;8.38;4.20;;;;;;;;;;5056063;28;20041;-71
2021/07/03 13:32:39;;;;;;;8.00;4.25;;;;;;;;;;5059413;28;20435;-71
2021/07/03 13:35:06;;;;;;;10.75;5.20;;;;;;;;;;5058549;28;20052;-71
2021/07/03 13:37:32;;;;;;;8.18;3.95;;;;;;;;;;5061540;28;20048;-71
2021/07/03 13:39:58;;;;;;;8.68;4.80;;;;;;;;;;5063076;28;20063;-71
2021/07/03 13:42:25;;;;;;;6.90;4.53;;;;;;;;;;5062519;28;20118;-71
2021/07/03 13:44:51;;;;;;;6.75;4.28;;;;;;;;;;5047821;28;20046;-73
2021/07/03 13:47:18;;;;;;;7.47;3.70;;;;;;;;;;5064590;28;20056;-72
2021/07/03 13:49:44;;;;;;;6.28;3.72;;;;;;;;;;5064623;28;20041;-71
2021/07/03 13:52:11;;;;;;;14.43;4.93;;;;;;;;;;5046218;28;20041;-75
2021/07/03 13:54:37;;;;;;;5.93;4.18;;;;;;;;;;5058556;28;20040;-70
2021/07/03 13:57:03;;;;;;;6.28;3.97;;;;;;;;;;5061968;28;20130;-72
2021/07/03 13:59:30;;;;;;;8.70;4.30;;;;;;;;;;5064528;28;20044;-71
2021/07/03 14:01:56;;;;;;;11.85;4.47;;;;;;;;;;5065366;28;20154;-71
2021/07/03 14:04:22;;;;;;;6.93;3.72;;;;;;;;;;5067123;28;20070;-71
2021/07/03 14:06:48;;;;;;;6.35;4.00;;;;;;;;;;5066813;28;20094;-71
2021/07/03 14:09:15;;;;;;;7.20;4.40;;;;;;;;;;5066007;28;20044;-70
2021/07/03 14:11:41;;;;;;;6.13;3.80;;;;;;;;;;5066902;28;20376;-70
2021/07/03 14:14:07;;;;;;;6.45;3.92;;;;;;;;;;5067282;28;20049;-70
2021/07/03 14:16:34;;;;;;;7.85;3.70;;;;;;;;;;5063500;28;20048;-71
2021/07/03 14:19:00;;;;;;;9.27;3.60;;;;;;;;;;5067191;28;20127;-71
2021/07/03 14:21:26;;;;;;;6.00;3.78;;;;;;;;;;5066008;28;20041;-70
2021/07/03 14:23:52;;;;;;;5.80;3.60;;;;;;;;;;5064798;28;20567;-70
2021/07/03 14:26:19;;;;;;;5.63;3.28;;;;;;;;;;5049272;28;20048;-71
2021/07/03 14:28:45;;;;;;;7.38;4.43;;;;;;;;;;5066992;28;20043;-70